Gwinn, Michigan
Current Conditions -  °F | °C
As of 10:45 AM on Thursday 27 Nov 2014 (Local Time) from KSAW Reporting Station
Clear Clear  
Wind Chill: -6°   Ceiling: Unl
Heat Index: 10°   Visibility: 10mi
Dew Point:   Wind: 15mph
Humidity: 73%   Direction: 320°NW
Pressure: 30.26"   Gusts: 21mph
Location:  46.28°N, 87.44°W
Report Text: KSAW 271545Z 32013G18KT 10SM SKC M12/M16 A3026
Loading
Personal Weather Stations






























Interactive Weather Map New forecast layout! Learn more

10-Day Weather Forecast

Advertisements
Track Severe Weather on mobile